NCAR-RAP Real-Time Weather Data

Output produced by METARs form (31 July 2015  05:03 UTC)
found at http://weather.rap.ucar.edu/surface/
 
Conditions at: KLOU observed 31 July 2015  04:53 UTC
Temperature: 21.7°C (71°F)
Dewpoint: 16.7°C (62°F) [RH = 73%]
Pressure (altimeter): 30.09 inches Hg (1019.0 mb)
[Sea-level pressure: 1018.4 mb]
Winds: calm
Visibility: 10 or more miles (16+ km)
Ceiling: at least 12,000 feet AGL
Clouds: sky clear below 12,000 feet AGL
Present Weather: automated observation with no human augmentation;
there may or may not be significant weather present at this time
KLOU 310453Z AUTO 00000KT 10SM CLR 22/17 A3009 RMK AO2 SLP184 T02170167 403170206